sensor_id;sensor_type;location;lat;lon;timestamp;pressure;altitude;pressure_sealevel;temperature;humidity
50859;BME280;36826;47.514;19.056;2023-05-11T00:02:13;100236.75;;;12.86;51.42
50859;BME280;36826;47.514;19.056;2023-05-11T00:04:39;100241.97;;;12.87;51.34
50859;BME280;36826;47.514;19.056;2023-05-11T00:07:06;100236.47;;;12.89;51.54
50859;BME280;36826;47.514;19.056;2023-05-11T00:09:36;100233.78;;;12.89;51.22
50859;BME280;36826;47.514;19.056;2023-05-11T00:12:05;100237.84;;;12.93;51.30
50859;BME280;36826;47.514;19.056;2023-05-11T00:14:31;100232.34;;;12.95;51.43
50859;BME280;36826;47.514;19.056;2023-05-11T00:16:57;100231.34;;;12.96;51.61
50859;BME280;36826;47.514;19.056;2023-05-11T00:19:24;100230.78;;;12.92;51.58
50859;BME280;36826;47.514;19.056;2023-05-11T00:22:02;100234.63;;;12.89;51.69
50859;BME280;36826;47.514;19.056;2023-05-11T00:24:36;100230.22;;;12.88;51.62
50859;BME280;36826;47.514;19.056;2023-05-11T00:27:01;100228.41;;;12.89;51.94
50859;BME280;36826;47.514;19.056;2023-05-11T00:29:27;100231.22;;;12.87;51.84
50859;BME280;36826;47.514;19.056;2023-05-11T00:31:53;100231.69;;;12.83;52.15
50859;BME280;36826;47.514;19.056;2023-05-11T00:34:18;100228.16;;;12.82;52.25
50859;BME280;36826;47.514;19.056;2023-05-11T00:36:46;100229.44;;;12.78;52.20
50859;BME280;36826;47.514;19.056;2023-05-11T00:39:12;100219.38;;;12.80;52.42
50859;BME280;36826;47.514;19.056;2023-05-11T00:41:43;100222.22;;;12.79;52.55
50859;BME280;36826;47.514;19.056;2023-05-11T00:44:10;100222.09;;;12.80;52.53
50859;BME280;36826;47.514;19.056;2023-05-11T00:46:36;100217.69;;;12.79;52.49
50859;BME280;36826;47.514;19.056;2023-05-11T00:49:02;100215.72;;;12.81;52.59
50859;BME280;36826;47.514;19.056;2023-05-11T00:51:30;100217.00;;;12.77;52.56
50859;BME280;36826;47.514;19.056;2023-05-11T00:53:58;100221.22;;;12.80;53.21
50859;BME280;36826;47.514;19.056;2023-05-11T00:56:24;100219.38;;;12.80;53.27
50859;BME280;36826;47.514;19.056;2023-05-11T00:58:51;100221.09;;;12.81;53.33
50859;BME280;36826;47.514;19.056;2023-05-11T01:01:16;100224.06;;;12.78;53.38
50859;BME280;36826;47.514;19.056;2023-05-11T01:03:43;100213.31;;;12.78;53.14
50859;BME280;36826;47.514;19.056;2023-05-11T01:14:53;100217.09;;;12.85;53.33
50859;BME280;36826;47.514;19.056;2023-05-11T01:20:36;100219.34;;;12.90;53.00
50859;BME280;36826;47.514;19.056;2023-05-11T01:29:00;100219.88;;;12.94;52.97
50859;BME280;36826;47.514;19.056;2023-05-11T01:31:33;100212.81;;;12.93;53.35
50859;BME280;36826;47.514;19.056;2023-05-11T01:34:02;100219.19;;;12.92;53.43
50859;BME280;36826;47.514;19.056;2023-05-11T01:36:33;100217.09;;;12.85;53.33
50859;BME280;36826;47.514;19.056;2023-05-11T01:39:07;100211.03;;;12.83;53.49
50859;BME280;36826;47.514;19.056;2023-05-11T01:41:34;100217.41;;;12.82;53.85
50859;BME280;36826;47.514;19.056;2023-05-11T01:44:06;100216.00;;;12.78;53.79
50859;BME280;36826;47.514;19.056;2023-05-11T01:46:34;100218.72;;;12.68;54.80
50859;BME280;36826;47.514;19.056;2023-05-11T01:49:04;100213.81;;;12.64;56.05
50859;BME280;36826;47.514;19.056;2023-05-11T01:51:36;100213.25;;;12.60;56.70
50859;BME280;36826;47.514;19.056;2023-05-11T01:54:05;100213.84;;;12.54;56.80
50859;BME280;36826;47.514;19.056;2023-05-11T01:56:32;100212.16;;;12.53;57.78
50859;BME280;36826;47.514;19.056;2023-05-11T01:59:00;100209.34;;;12.54;57.70
50859;BME280;36826;47.514;19.056;2023-05-11T02:01:29;100209.34;;;12.54;58.10
50859;BME280;36826;47.514;19.056;2023-05-11T02:04:02;100209.34;;;12.54;57.98
50859;BME280;36826;47.514;19.056;2023-05-11T02:06:30;100213.84;;;12.54;58.43
50859;BME280;36826;47.514;19.056;2023-05-11T02:08:57;100201.97;;;12.56;59.29
50859;BME280;36826;47.514;19.056;2023-05-11T02:11:27;100203.97;;;12.54;59.10
50859;BME280;36826;47.514;19.056;2023-05-11T02:13:55;100206.78;;;12.53;59.23
50859;BME280;36826;47.514;19.056;2023-05-11T02:16:24;100204.53;;;12.48;58.94
50859;BME280;36826;47.514;19.056;2023-05-11T02:18:55;100204.97;;;12.43;58.70
50859;BME280;36826;47.514;19.056;2023-05-11T02:21:26;100199.78;;;12.42;58.56
50859;BME280;36826;47.514;19.056;2023-05-11T02:24:00;100196.94;;;12.34;58.60
50859;BME280;36826;47.514;19.056;2023-05-11T02:26:28;100206.03;;;12.33;58.92
50859;BME280;36826;47.514;19.056;2023-05-11T02:28:54;100206.31;;;12.30;58.37
50859;BME280;36826;47.514;19.056;2023-05-11T02:31:27;100194.72;;;12.29;58.33
50859;BME280;36826;47.514;19.056;2023-05-11T02:33:59;100196.13;;;12.33;58.35
50859;BME280;36826;47.514;19.056;2023-05-11T02:36:28;100191.59;;;12.34;57.31
50859;BME280;36826;47.514;19.056;2023-05-11T02:39:01;100195.28;;;12.33;56.79
50859;BME280;36826;47.514;19.056;2023-05-11T02:41:30;100194.16;;;12.25;57.12
50859;BME280;36826;47.514;19.056;2023-05-11T02:44:01;100202.13;;;12.17;56.72
50859;BME280;36826;47.514;19.056;2023-05-11T02:46:31;100191.13;;;12.10;56.86
50859;BME280;36826;47.514;19.056;2023-05-11T02:49:06;100191.69;;;12.04;56.99
50859;BME280;36826;47.514;19.056;2023-05-11T02:51:35;100183.63;;;11.94;57.17
50859;BME280;36826;47.514;19.056;2023-05-11T02:54:02;100189.16;;;11.83;56.91
50859;BME280;36826;47.514;19.056;2023-05-11T02:56:31;100190.44;;;11.79;56.98
50859;BME280;36826;47.514;19.056;2023-05-11T02:58:58;100184.66;;;11.74;57.61
50859;BME280;36826;47.514;19.056;2023-05-11T03:01:23;100182.41;;;11.69;57.13
50859;BME280;36826;47.514;19.056;2023-05-11T03:03:50;100183.53;;;11.66;57.31
50859;BME280;36826;47.514;19.056;2023-05-11T03:06:19;100187.22;;;11.65;57.07
50859;BME280;36826;47.514;19.056;2023-05-11T03:08:47;100191.44;;;11.68;57.52
50859;BME280;36826;47.514;19.056;2023-05-11T03:11:16;100184.09;;;11.70;57.60
50859;BME280;36826;47.514;19.056;2023-05-11T03:13:47;100186.63;;;11.72;58.12
50859;BME280;36826;47.514;19.056;2023-05-11T03:16:14;100188.31;;;11.73;58.39
50859;BME280;36826;47.514;19.056;2023-05-11T03:18:45;100189.03;;;11.75;58.59
50859;BME280;36826;47.514;19.056;2023-05-11T03:21:15;100194.13;;;11.78;58.29
50859;BME280;36826;47.514;19.056;2023-05-11T03:23:43;100191.44;;;11.78;58.91
50859;BME280;36826;47.514;19.056;2023-05-11T03:26:10;100191.44;;;11.78;58.55
50859;BME280;36826;47.514;19.056;2023-05-11T03:28:40;100198.34;;;11.80;58.31
50859;BME280;36826;47.514;19.056;2023-05-11T03:31:08;100198.91;;;11.84;58.35
50859;BME280;36826;47.514;19.056;2023-05-11T03:33:35;100196.22;;;11.84;58.64
50859;BME280;36826;47.514;19.056;2023-05-11T03:36:03;100199.59;;;11.86;58.75
50859;BME280;36826;47.514;19.056;2023-05-11T03:38:33;100197.06;;;11.85;57.74
50859;BME280;36826;47.514;19.056;2023-05-11T03:41:01;100205.25;;;11.83;57.84
50859;BME280;36826;47.514;19.056;2023-05-11T03:43:29;100196.22;;;11.84;57.56
50859;BME280;36826;47.514;19.056;2023-05-11T03:45:56;100201.44;;;11.86;57.63
50859;BME280;36826;47.514;19.056;2023-05-11T03:48:25;100202.00;;;11.89;57.43
50859;BME280;36826;47.514;19.056;2023-05-11T03:50:53;100206.78;;;11.95;57.13
50859;BME280;36826;47.514;19.056;2023-05-11T03:56:09;100209.47;;;11.95;57.14
50859;BME280;36826;47.514;19.056;2023-05-11T03:58:39;100200.03;;;11.91;57.59
50859;BME280;36826;47.514;19.056;2023-05-11T04:01:08;100208.19;;;11.90;57.82
50859;BME280;36826;47.514;19.056;2023-05-11T04:03:35;100212.47;;;11.92;57.07
50859;BME280;36826;47.514;19.056;2023-05-11T04:06:11;100209.78;;;11.82;57.42
50859;BME280;36826;47.514;19.056;2023-05-11T04:08:37;100207.25;;;11.81;57.67
50859;BME280;36826;47.514;19.056;2023-05-11T04:11:02;100213.13;;;11.94;57.69
50859;BME280;36826;47.514;19.056;2023-05-11T04:13:28;100215.00;;;12.04;57.56
50859;BME280;36826;47.514;19.056;2023-05-11T04:15:53;100216.28;;;12.00;57.15
50859;BME280;36826;47.514;19.056;2023-05-11T04:18:19;100221.38;;;12.03;57.18
50859;BME280;36826;47.514;19.056;2023-05-11T04:20:44;100218.75;;;12.31;57.37
50859;BME280;36826;47.514;19.056;2023-05-11T04:23:10;100230.63;;;12.66;56.51
50859;BME280;36826;47.514;19.056;2023-05-11T04:25:35;100227.00;;;12.57;56.38
50859;BME280;36826;47.514;19.056;2023-05-11T04:28:07;100224.56;;;12.64;56.61
50859;BME280;36826;47.514;19.056;2023-05-11T04:30:33;100226.53;;;12.62;56.88
50859;BME280;36826;47.514;19.056;2023-05-11T04:32:58;100233.22;;;12.85;56.21
50859;BME280;36826;47.514;19.056;2023-05-11T04:35:24;100233.69;;;12.99;56.17
50859;BME280;36826;47.514;19.056;2023-05-11T04:37:50;100235.09;;;13.03;55.87
50859;BME280;36826;47.514;19.056;2023-05-11T04:40:17;100232.56;;;13.01;56.04
50859;BME280;36826;47.514;19.056;2023-05-11T04:42:44;100241.13;;;13.15;55.67
50859;BME280;36826;47.514;19.056;2023-05-11T04:45:10;100247.13;;;13.27;55.30
50859;BME280;36826;47.514;19.056;2023-05-11T04:47:35;100240.06;;;13.26;55.22
50859;BME280;36826;47.514;19.056;2023-05-11T04:50:01;100237.00;;;13.20;55.27
50859;BME280;36826;47.514;19.056;2023-05-11T04:52:27;100245.19;;;13.19;55.63
50859;BME280;36826;47.514;19.056;2023-05-11T04:54:53;100239.28;;;13.15;55.54
50859;BME280;36826;47.514;19.056;2023-05-11T04:57:19;100238.41;;;13.43;52.48
50859;BME280;36826;47.514;19.056;2023-05-11T04:59:47;100242.16;;;13.86;52.29
50859;BME280;36826;47.514;19.056;2023-05-11T05:02:13;100246.91;;;13.38;50.35
50859;BME280;36826;47.514;19.056;2023-05-11T05:04:39;100253.41;;;13.45;50.95
50859;BME280;36826;47.514;19.056;2023-05-11T05:07:04;100249.97;;;13.53;50.63
50859;BME280;36826;47.514;19.056;2023-05-11T05:09:31;100254.41;;;13.44;49.98
50859;BME280;36826;47.514;19.056;2023-05-11T05:11:57;100248.34;;;13.60;49.53
50859;BME280;36826;47.514;19.056;2023-05-11T05:14:24;100251.31;;;13.75;48.45
50859;BME280;36826;47.514;19.056;2023-05-11T05:16:50;100257.47;;;13.86;48.41
50859;BME280;36826;47.514;19.056;2023-05-11T05:19:18;100247.75;;;13.93;47.52
50859;BME280;36826;47.514;19.056;2023-05-11T05:21:43;100252.13;;;13.68;48.27
50859;BME280;36826;47.514;19.056;2023-05-11T05:24:11;100258.44;;;14.29;47.00
50859;BME280;36826;47.514;19.056;2023-05-11T05:26:37;100249.72;;;15.56;44.54
50859;BME280;36826;47.514;19.056;2023-05-11T05:29:03;100253.81;;;16.09;43.14
50859;BME280;36826;47.514;19.056;2023-05-11T05:31:29;100255.16;;;16.05;42.77
50859;BME280;36826;47.514;19.056;2023-05-11T05:33:54;100245.81;;;15.58;42.66
50859;BME280;36826;47.514;19.056;2023-05-11T05:36:20;100254.50;;;15.02;44.31
50859;BME280;36826;47.514;19.056;2023-05-11T05:38:45;100258.41;;;15.25;43.97
50859;BME280;36826;47.514;19.056;2023-05-11T05:41:11;100253.91;;;15.58;43.58
50859;BME280;36826;47.514;19.056;2023-05-11T05:43:36;100263.16;;;15.39;43.51
50859;BME280;36826;47.514;19.056;2023-05-11T05:46:02;100251.81;;;14.68;45.06
50859;BME280;36826;47.514;19.056;2023-05-11T05:48:27;100266.72;;;15.40;43.43
50859;BME280;36826;47.514;19.056;2023-05-11T05:50:53;100264.00;;;17.43;39.85
50859;BME280;36826;47.514;19.056;2023-05-11T05:53:19;100269.28;;;18.60;37.58
50859;BME280;36826;47.514;19.056;2023-05-11T05:55:44;100257.41;;;18.46;37.18
50859;BME280;36826;47.514;19.056;2023-05-11T05:58:10;100270.75;;;19.81;35.22
50859;BME280;36826;47.514;19.056;2023-05-11T06:00:36;100264.53;;;20.37;34.44
50859;BME280;36826;47.514;19.056;2023-05-11T06:03:02;100268.25;;;20.58;34.61
50859;BME280;36826;47.514;19.056;2023-05-11T06:05:28;100265.38;;;21.97;31.66
50859;BME280;36826;47.514;19.056;2023-05-11T06:07:53;100260.56;;;22.46;31.64
50859;BME280;36826;47.514;19.056;2023-05-11T06:10:19;100264.34;;;22.45;31.23
50859;BME280;36826;47.514;19.056;2023-05-11T06:12:44;100257.44;;;24.36;28.88
50859;BME280;36826;47.514;19.056;2023-05-11T06:15:13;100254.19;;;24.02;28.48
50859;BME280;36826;47.514;19.056;2023-05-11T06:17:39;100266.44;;;23.60;29.17
50859;BME280;36826;47.514;19.056;2023-05-11T06:20:05;100263.72;;;23.22;29.62
50859;BME280;36826;47.514;19.056;2023-05-11T06:22:31;100266.16;;;23.37;29.86
50859;BME280;36826;47.514;19.056;2023-05-11T06:24:56;100272.06;;;23.34;29.29
50859;BME280;36826;47.514;19.056;2023-05-11T06:27:22;100268.03;;;23.75;29.35
50859;BME280;36826;47.514;19.056;2023-05-11T06:29:47;100264.34;;;24.20;28.70
50859;BME280;36826;47.514;19.056;2023-05-11T06:32:13;100260.22;;;24.55;28.47
50859;BME280;36826;47.514;19.056;2023-05-11T06:34:39;100256.22;;;23.81;28.67
50859;BME280;36826;47.514;19.056;2023-05-11T06:37:04;100268.38;;;23.53;29.76
50859;BME280;36826;47.514;19.056;2023-05-11T06:39:30;100257.13;;;24.26;28.93
50859;BME280;36826;47.514;19.056;2023-05-11T06:41:58;100263.63;;;23.74;30.04
50859;BME280;36826;47.514;19.056;2023-05-11T06:44:24;100265.13;;;24.90;28.60
50859;BME280;36826;47.514;19.056;2023-05-11T06:46:50;100253.22;;;24.15;28.71
50859;BME280;36826;47.514;19.056;2023-05-11T06:49:15;100253.63;;;24.37;28.60
50859;BME280;36826;47.514;19.056;2023-05-11T06:51:41;100252.84;;;25.11;27.81
50859;BME280;36826;47.514;19.056;2023-05-11T06:54:06;100256.69;;;23.71;29.71
50859;BME280;36826;47.514;19.056;2023-05-11T06:56:32;100250.91;;;25.30;28.12
50859;BME280;36826;47.514;19.056;2023-05-11T06:58:58;100254.34;;;25.98;26.98
50859;BME280;36826;47.514;19.056;2023-05-11T07:01:23;100251.47;;;23.95;29.43
50859;BME280;36826;47.514;19.056;2023-05-11T07:03:49;100239.31;;;24.79;28.88
50859;BME280;36826;47.514;19.056;2023-05-11T07:06:14;100242.56;;;26.33;26.33
50859;BME280;36826;47.514;19.056;2023-05-11T07:08:40;100236.31;;;24.62;27.85
50859;BME280;36826;47.514;19.056;2023-05-11T07:11:06;100239.97;;;23.86;29.50
50859;BME280;36826;47.514;19.056;2023-05-11T07:13:31;100241.34;;;25.02;27.64
50859;BME280;36826;47.514;19.056;2023-05-11T07:15:57;100243.72;;;26.02;26.43
50859;BME280;36826;47.514;19.056;2023-05-11T07:18:23;100232.31;;;25.32;27.33
50859;BME280;36826;47.514;19.056;2023-05-11T07:20:48;100243.00;;;24.29;28.47
50859;BME280;36826;47.514;19.056;2023-05-11T07:23:15;100241.25;;;25.27;27.08
50859;BME280;36826;47.514;19.056;2023-05-11T07:25:41;100236.50;;;25.65;26.33
50859;BME280;36826;47.514;19.056;2023-05-11T07:28:06;100229.94;;;25.54;26.42
50859;BME280;36826;47.514;19.056;2023-05-11T07:30:32;100233.84;;;24.97;27.13
50859;BME280;36826;47.514;19.056;2023-05-11T07:32:58;100232.34;;;26.93;25.14
50859;BME280;36826;47.514;19.056;2023-05-11T07:35:23;100215.47;;;26.25;25.48
50859;BME280;36826;47.514;19.056;2023-05-11T07:37:49;100230.50;;;25.45;26.42
50859;BME280;36826;47.514;19.056;2023-05-11T07:40:14;100234.78;;;26.66;25.11
50859;BME280;36826;47.514;19.056;2023-05-11T07:42:40;100230.22;;;26.60;24.83
50859;BME280;36826;47.514;19.056;2023-05-11T07:45:06;100239.56;;;25.99;25.36
50859;BME280;36826;47.514;19.056;2023-05-11T07:47:31;100231.47;;;26.16;24.79
50859;BME280;36826;47.514;19.056;2023-05-11T07:49:57;100227.97;;;25.97;25.27
50859;BME280;36826;47.514;19.056;2023-05-11T07:52:22;100231.63;;;25.67;25.54
50859;BME280;36826;47.514;19.056;2023-05-11T07:54:48;100230.94;;;25.41;25.83
50859;BME280;36826;47.514;19.056;2023-05-11T07:57:13;100218.16;;;26.73;24.47
50859;BME280;36826;47.514;19.056;2023-05-11T07:59:39;100231.22;;;26.54;24.93
50859;BME280;36826;47.514;19.056;2023-05-11T08:02:06;100226.44;;;26.37;24.80
50859;BME280;36826;47.514;19.056;2023-05-11T08:04:32;100225.41;;;27.95;23.67
50859;BME280;36826;47.514;19.056;2023-05-11T08:06:57;100231.03;;;26.72;24.01
50859;BME280;36826;47.514;19.056;2023-05-11T08:09:23;100220.28;;;27.52;23.65
50859;BME280;36826;47.514;19.056;2023-05-11T08:11:49;100225.81;;;26.83;24.16
50859;BME280;36826;47.514;19.056;2023-05-11T08:14:14;100225.88;;;26.23;24.85
50859;BME280;36826;47.514;19.056;2023-05-11T08:16:41;100217.84;;;26.22;25.18
50859;BME280;36826;47.514;19.056;2023-05-11T08:19:08;100222.28;;;26.99;24.04
50859;BME280;36826;47.514;19.056;2023-05-11T08:21:34;100212.84;;;27.24;24.08
50859;BME280;36826;47.514;19.056;2023-05-11T08:24:00;100220.41;;;26.88;23.92
50859;BME280;36826;47.514;19.056;2023-05-11T08:26:25;100207.88;;;28.01;22.72
50859;BME280;36826;47.514;19.056;2023-05-11T08:28:51;100213.22;;;26.99;23.56
50859;BME280;36826;47.514;19.056;2023-05-11T08:31:17;100200.81;;;26.96;23.80
50859;BME280;36826;47.514;19.056;2023-05-11T08:33:44;100203.53;;;26.31;24.69
50859;BME280;36826;47.514;19.056;2023-05-11T08:36:10;100220.59;;;26.45;23.95
50859;BME280;36826;47.514;19.056;2023-05-11T08:38:38;100204.38;;;26.20;24.05
50859;BME280;36826;47.514;19.056;2023-05-11T08:41:04;100191.59;;;26.26;23.73
50859;BME280;36826;47.514;19.056;2023-05-11T08:43:33;100204.84;;;26.29;23.72
50859;BME280;36826;47.514;19.056;2023-05-11T08:46:02;100194.16;;;26.68;23.58
50859;BME280;36826;47.514;19.056;2023-05-11T08:48:29;100211.88;;;26.25;24.04
50859;BME280;36826;47.514;19.056;2023-05-11T08:50:55;100199.53;;;25.37;24.99
50859;BME280;36826;47.514;19.056;2023-05-11T08:53:21;100187.25;;;26.54;23.99
50859;BME280;36826;47.514;19.056;2023-05-11T08:55:51;100185.88;;;27.21;23.48
50859;BME280;36826;47.514;19.056;2023-05-11T08:58:19;100180.81;;;28.32;22.10
50859;BME280;36826;47.514;19.056;2023-05-11T09:00:48;100173.94;;;28.74;21.62
50859;BME280;36826;47.514;19.056;2023-05-11T09:03:17;100183.94;;;27.21;23.33
50859;BME280;36826;47.514;19.056;2023-05-11T09:05:47;100175.59;;;28.13;22.38
50859;BME280;36826;47.514;19.056;2023-05-11T09:08:14;100183.78;;;26.58;23.90
50859;BME280;36826;47.514;19.056;2023-05-11T09:10:42;100189.56;;;26.21;24.22
50859;BME280;36826;47.514;19.056;2023-05-11T09:13:08;100169.72;;;26.43;24.23
50859;BME280;36826;47.514;19.056;2023-05-11T09:15:34;100191.50;;;24.93;26.08
50859;BME280;36826;47.514;19.056;2023-05-11T09:18:00;100175.78;;;24.89;26.51
50859;BME280;36826;47.514;19.056;2023-05-11T09:20:28;100182.47;;;24.18;27.41
50859;BME280;36826;47.514;19.056;2023-05-11T09:22:54;100174.31;;;23.86;28.31
50859;BME280;36826;47.514;19.056;2023-05-11T09:25:21;100190.06;;;25.09;26.29
50859;BME280;36826;47.514;19.056;2023-05-11T09:27:47;100160.72;;;24.24;27.46
50859;BME280;36826;47.514;19.056;2023-05-11T09:30:21;100169.84;;;24.73;27.25
50859;BME280;36826;47.514;19.056;2023-05-11T09:38:06;100153.31;;;22.91;29.19
50859;BME280;36826;47.514;19.056;2023-05-11T09:40:38;100161.03;;;24.52;27.10
50859;BME280;36826;47.514;19.056;2023-05-11T09:45:45;100152.13;;;22.73;29.69
50859;BME280;36826;47.514;19.056;2023-05-11T09:50:43;100146.81;;;23.56;28.93
50859;BME280;36826;47.514;19.056;2023-05-11T09:53:09;100158.09;;;23.92;28.01
50859;BME280;36826;47.514;19.056;2023-05-11T09:55:35;100151.00;;;24.28;27.60
50859;BME280;36826;47.514;19.056;2023-05-11T09:58:02;100169.25;;;24.15;27.65
50859;BME280;36826;47.514;19.056;2023-05-11T10:00:30;100139.16;;;24.71;26.42
50859;BME280;36826;47.514;19.056;2023-05-11T10:02:59;100148.63;;;25.72;23.74
50859;BME280;36826;47.514;19.056;2023-05-11T10:05:27;100135.34;;;24.54;24.33
50859;BME280;36826;47.514;19.056;2023-05-11T10:07:58;100140.72;;;23.28;26.30
50859;BME280;36826;47.514;19.056;2023-05-11T10:10:27;100133.75;;;23.33;26.55
50859;BME280;36826;47.514;19.056;2023-05-11T10:12:55;100129.50;;;23.37;26.68
50859;BME280;36826;47.514;19.056;2023-05-11T10:15:23;100137.28;;;23.01;27.47
50859;BME280;36826;47.514;19.056;2023-05-11T10:17:57;100124.16;;;23.74;26.74
50859;BME280;36826;47.514;19.056;2023-05-11T10:20:25;100126.75;;;23.05;27.66
50859;BME280;36826;47.514;19.056;2023-05-11T10:22:52;100123.72;;;22.42;28.15
50859;BME280;36826;47.514;19.056;2023-05-11T10:25:21;100150.63;;;22.25;29.02
50859;BME280;36826;47.514;19.056;2023-05-11T10:27:49;100127.09;;;22.31;28.98
50859;BME280;36826;47.514;19.056;2023-05-11T10:30:18;100122.66;;;22.50;28.33
50859;BME280;36826;47.514;19.056;2023-05-11T10:32:45;100123.56;;;22.03;28.49
50859;BME280;36826;47.514;19.056;2023-05-11T10:35:13;100110.53;;;22.19;27.62
50859;BME280;36826;47.514;19.056;2023-05-11T10:37:41;100119.38;;;22.07;27.78
50859;BME280;36826;47.514;19.056;2023-05-11T10:40:08;100109.97;;;21.90;28.45
50859;BME280;36826;47.514;19.056;2023-05-11T10:42:54;100112.50;;;21.85;28.55
50859;BME280;36826;47.514;19.056;2023-05-11T10:54:58;100102.88;;;21.42;29.22
50859;BME280;36826;47.514;19.056;2023-05-11T11:02:55;100104.53;;;21.09;29.48
50859;BME280;36826;47.514;19.056;2023-05-11T11:05:34;100101.16;;;20.94;30.16
50859;BME280;36826;47.514;19.056;2023-05-11T11:08:01;100091.50;;;20.98;30.22
50859;BME280;36826;47.514;19.056;2023-05-11T11:10:34;100089.63;;;21.05;30.09
50859;BME280;36826;47.514;19.056;2023-05-11T11:13:09;100077.72;;;21.33;29.85
50859;BME280;36826;47.514;19.056;2023-05-11T11:18:21;100069.28;;;20.26;30.34
50859;BME280;36826;47.514;19.056;2023-05-11T11:20:48;100097.97;;;20.35;30.52
50859;BME280;36826;47.514;19.056;2023-05-11T11:26:11;100088.41;;;21.28;29.43
50859;BME280;36826;47.514;19.056;2023-05-11T11:31:30;100095.63;;;20.74;29.69
50859;BME280;36826;47.514;19.056;2023-05-11T11:33:58;100074.22;;;20.57;29.92
50859;BME280;36826;47.514;19.056;2023-05-11T11:42:13;100087.50;;;20.80;28.68
50859;BME280;36826;47.514;19.056;2023-05-11T11:44:40;100109.72;;;20.91;28.44
50859;BME280;36826;47.514;19.056;2023-05-11T11:47:16;100082.31;;;21.33;27.32
50859;BME280;36826;47.514;19.056;2023-05-11T11:49:44;100066.19;;;21.31;27.44
50859;BME280;36826;47.514;19.056;2023-05-11T11:52:32;100063.47;;;21.65;27.66
50859;BME280;36826;47.514;19.056;2023-05-11T11:54:59;100075.81;;;21.34;28.84
50859;BME280;36826;47.514;19.056;2023-05-11T11:57:44;100072.69;;;21.17;29.34
50859;BME280;36826;47.514;19.056;2023-05-11T12:00:20;100066.78;;;20.93;29.96
50859;BME280;36826;47.514;19.056;2023-05-11T12:02:47;100073.19;;;20.65;30.42
50859;BME280;36826;47.514;19.056;2023-05-11T12:05:15;100084.63;;;20.40;30.89
50859;BME280;36826;47.514;19.056;2023-05-11T12:07:51;100066.63;;;20.39;30.65
50859;BME280;36826;47.514;19.056;2023-05-11T12:10:19;100065.66;;;20.60;30.41
50859;BME280;36826;47.514;19.056;2023-05-11T12:12:50;100058.81;;;20.78;29.76
50859;BME280;36826;47.514;19.056;2023-05-11T12:15:29;100060.97;;;20.47;29.64
50859;BME280;36826;47.514;19.056;2023-05-11T12:17:58;100061.84;;;20.48;29.97
50859;BME280;36826;47.514;19.056;2023-05-11T12:20:38;100049.19;;;21.02;28.95
50859;BME280;36826;47.514;19.056;2023-05-11T12:23:04;100054.38;;;20.70;30.07
50859;BME280;36826;47.514;19.056;2023-05-11T12:25:30;100075.97;;;20.78;30.09
50859;BME280;36826;47.514;19.056;2023-05-11T12:27:56;100060.31;;;20.94;29.28
50859;BME280;36826;47.514;19.056;2023-05-11T12:30:30;100042.94;;;21.22;28.81
50859;BME280;36826;47.514;19.056;2023-05-11T12:32:57;100031.19;;;21.41;28.91
50859;BME280;36826;47.514;19.056;2023-05-11T12:35:32;100047.13;;;21.71;28.92
50859;BME280;36826;47.514;19.056;2023-05-11T12:38:00;100039.09;;;21.90;27.43
50859;BME280;36826;47.514;19.056;2023-05-11T12:40:31;100060.75;;;21.44;27.76
50859;BME280;36826;47.514;19.056;2023-05-11T12:42:58;100042.50;;;21.05;29.60
50859;BME280;36826;47.514;19.056;2023-05-11T12:45:25;100065.50;;;20.75;30.57
50859;BME280;36826;47.514;19.056;2023-05-11T12:47:53;100034.41;;;20.49;31.24
50859;BME280;36826;47.514;19.056;2023-05-11T12:50:20;100037.31;;;20.34;31.13
50859;BME280;36826;47.514;19.056;2023-05-11T12:52:45;100032.78;;;20.62;31.02
50859;BME280;36826;47.514;19.056;2023-05-11T12:55:12;100025.09;;;20.92;30.32
50859;BME280;36826;47.514;19.056;2023-05-11T12:57:39;100023.00;;;20.94;30.69
50859;BME280;36826;47.514;19.056;2023-05-11T13:00:15;100014.84;;;21.01;30.52
50859;BME280;36826;47.514;19.056;2023-05-11T13:02:52;100046.72;;;21.07;29.88
50859;BME280;36826;47.514;19.056;2023-05-11T13:05:23;100016.94;;;20.85;29.44
50859;BME280;36826;47.514;19.056;2023-05-11T13:08:01;100011.47;;;20.85;28.55
50859;BME280;36826;47.514;19.056;2023-05-11T13:10:27;100032.47;;;21.12;29.00
50859;BME280;36826;47.514;19.056;2023-05-11T13:12:53;100008.34;;;20.95;30.12
50859;BME280;36826;47.514;19.056;2023-05-11T13:15:21;100010.25;;;20.95;29.62
50859;BME280;36826;47.514;19.056;2023-05-11T13:17:48;100011.22;;;20.67;30.08
50859;BME280;36826;47.514;19.056;2023-05-11T13:22:49;99995.09;;;20.52;30.54
50859;BME280;36826;47.514;19.056;2023-05-11T13:25:19;99997.38;;;20.48;31.29
50859;BME280;36826;47.514;19.056;2023-05-11T13:27:45;99998.44;;;20.61;30.81
50859;BME280;36826;47.514;19.056;2023-05-11T13:30:11;99987.63;;;20.94;30.67
50859;BME280;36826;47.514;19.056;2023-05-11T13:32:37;99979.69;;;20.86;30.11
50859;BME280;36826;47.514;19.056;2023-05-11T13:35:03;99982.59;;;21.11;29.55
50859;BME280;36826;47.514;19.056;2023-05-11T13:37:29;99993.06;;;21.01;29.44
50859;BME280;36826;47.514;19.056;2023-05-11T13:39:55;100004.13;;;20.66;30.02
50859;BME280;36826;47.514;19.056;2023-05-11T13:42:22;99996.09;;;20.31;29.97
50859;BME280;36826;47.514;19.056;2023-05-11T13:44:47;99991.91;;;20.35;30.34
50859;BME280;36826;47.514;19.056;2023-05-11T13:47:13;99990.81;;;20.22;30.58